sensor_id;sensor_type;location;lat;lon;timestamp;temperature;humidity
6439;DHT22;3252;52.540;13.290;2023-05-07T00:01:57;9.20;99.90
6439;DHT22;3252;52.540;13.290;2023-05-07T00:04:02;9.20;99.90
6439;DHT22;3252;52.540;13.290;2023-05-07T00:06:06;9.20;99.90
6439;DHT22;3252;52.540;13.290;2023-05-07T00:08:08;9.20;99.90
6439;DHT22;3252;52.540;13.290;2023-05-07T00:10:13;9.10;99.90
6439;DHT22;3252;52.540;13.290;2023-05-07T00:12:16;9.20;99.90
6439;DHT22;3252;52.540;13.290;2023-05-07T00:14:20;9.20;99.90
6439;DHT22;3252;52.540;13.290;2023-05-07T00:16:23;9.20;99.90
6439;DHT22;3252;52.540;13.290;2023-05-07T00:18:27;9.20;99.90
6439;DHT22;3252;52.540;13.290;2023-05-07T00:20:29;9.20;99.90
6439;DHT22;3252;52.540;13.290;2023-05-07T00:22:32;9.30;99.90
6439;DHT22;3252;52.540;13.290;2023-05-07T00:24:34;9.20;99.90
6439;DHT22;3252;52.540;13.290;2023-05-07T00:26:37;9.20;99.90
6439;DHT22;3252;52.540;13.290;2023-05-07T00:28:41;9.20;99.90
6439;DHT22;3252;52.540;13.290;2023-05-07T00:30:45;9.20;99.90
6439;DHT22;3252;52.540;13.290;2023-05-07T00:32:47;9.20;99.90
6439;DHT22;3252;52.540;13.290;2023-05-07T00:34:51;9.20;99.90
6439;DHT22;3252;52.540;13.290;2023-05-07T00:36:54;9.20;99.90
6439;DHT22;3252;52.540;13.290;2023-05-07T00:38:59;9.10;99.90
6439;DHT22;3252;52.540;13.290;2023-05-07T00:41:03;9.20;99.90
6439;DHT22;3252;52.540;13.290;2023-05-07T00:43:06;9.20;99.90
6439;DHT22;3252;52.540;13.290;2023-05-07T00:45:10;9.20;99.90
6439;DHT22;3252;52.540;13.290;2023-05-07T00:47:14;9.20;99.90
6439;DHT22;3252;52.540;13.290;2023-05-07T00:49:18;9.30;99.90
6439;DHT22;3252;52.540;13.290;2023-05-07T00:51:20;9.30;99.90
6439;DHT22;3252;52.540;13.290;2023-05-07T00:53:23;9.20;99.90
6439;DHT22;3252;52.540;13.290;2023-05-07T00:55:30;9.30;99.90
6439;DHT22;3252;52.540;13.290;2023-05-07T00:57:44;9.30;99.90
6439;DHT22;3252;52.540;13.290;2023-05-07T00:59:47;9.30;99.90
6439;DHT22;3252;52.540;13.290;2023-05-07T01:01:51;9.30;99.90
6439;DHT22;3252;52.540;13.290;2023-05-07T01:03:56;9.20;99.90
6439;DHT22;3252;52.540;13.290;2023-05-07T01:05:59;9.20;99.90
6439;DHT22;3252;52.540;13.290;2023-05-07T01:08:02;9.30;99.90
6439;DHT22;3252;52.540;13.290;2023-05-07T01:10:07;9.30;99.90
6439;DHT22;3252;52.540;13.290;2023-05-07T01:12:11;9.30;99.90
6439;DHT22;3252;52.540;13.290;2023-05-07T01:14:14;9.30;99.90
6439;DHT22;3252;52.540;13.290;2023-05-07T01:16:16;9.30;99.90
6439;DHT22;3252;52.540;13.290;2023-05-07T01:18:19;9.30;99.90
6439;DHT22;3252;52.540;13.290;2023-05-07T01:20:24;9.20;99.90
6439;DHT22;3252;52.540;13.290;2023-05-07T01:22:31;9.20;99.90
6439;DHT22;3252;52.540;13.290;2023-05-07T01:24:44;9.10;99.90
6439;DHT22;3252;52.540;13.290;2023-05-07T01:26:49;9.20;99.90
6439;DHT22;3252;52.540;13.290;2023-05-07T01:28:52;9.20;99.90
6439;DHT22;3252;52.540;13.290;2023-05-07T01:30:58;9.20;99.90
6439;DHT22;3252;52.540;13.290;2023-05-07T01:33:06;9.10;99.90
6439;DHT22;3252;52.540;13.290;2023-05-07T01:35:16;9.20;99.90
6439;DHT22;3252;52.540;13.290;2023-05-07T01:37:21;9.10;99.90
6439;DHT22;3252;52.540;13.290;2023-05-07T01:39:26;9.10;99.90
6439;DHT22;3252;52.540;13.290;2023-05-07T01:41:29;9.10;99.90
6439;DHT22;3252;52.540;13.290;2023-05-07T01:43:31;9.20;99.90
6439;DHT22;3252;52.540;13.290;2023-05-07T01:45:34;9.20;99.90
6439;DHT22;3252;52.540;13.290;2023-05-07T01:47:37;9.10;99.90
6439;DHT22;3252;52.540;13.290;2023-05-07T01:49:41;9.10;99.90
6439;DHT22;3252;52.540;13.290;2023-05-07T01:51:46;9.20;99.90
6439;DHT22;3252;52.540;13.290;2023-05-07T01:53:49;9.10;99.90
6439;DHT22;3252;52.540;13.290;2023-05-07T01:55:56;9.10;99.90
6439;DHT22;3252;52.540;13.290;2023-05-07T01:58:00;9.20;99.90
6439;DHT22;3252;52.540;13.290;2023-05-07T02:00:03;9.10;99.90
6439;DHT22;3252;52.540;13.290;2023-05-07T02:02:16;9.10;99.90
6439;DHT22;3252;52.540;13.290;2023-05-07T02:04:21;9.20;99.90
6439;DHT22;3252;52.540;13.290;2023-05-07T02:06:25;9.20;99.90
6439;DHT22;3252;52.540;13.290;2023-05-07T02:08:32;9.20;99.90
6439;DHT22;3252;52.540;13.290;2023-05-07T02:10:35;9.20;99.90
6439;DHT22;3252;52.540;13.290;2023-05-07T02:12:42;9.10;99.90
6439;DHT22;3252;52.540;13.290;2023-05-07T02:14:46;9.10;99.90
6439;DHT22;3252;52.540;13.290;2023-05-07T02:16:49;9.10;99.90
6439;DHT22;3252;52.540;13.290;2023-05-07T02:18:52;9.10;99.90
6439;DHT22;3252;52.540;13.290;2023-05-07T02:20:55;9.10;99.90
6439;DHT22;3252;52.540;13.290;2023-05-07T02:22:57;9.10;99.90
6439;DHT22;3252;52.540;13.290;2023-05-07T02:25:02;9.10;99.90
6439;DHT22;3252;52.540;13.290;2023-05-07T02:27:05;9.10;99.90
6439;DHT22;3252;52.540;13.290;2023-05-07T02:29:09;9.10;99.90
6439;DHT22;3252;52.540;13.290;2023-05-07T02:31:13;9.10;99.90
6439;DHT22;3252;52.540;13.290;2023-05-07T02:33:15;9.10;99.90
6439;DHT22;3252;52.540;13.290;2023-05-07T02:35:18;9.10;99.90
6439;DHT22;3252;52.540;13.290;2023-05-07T02:37:24;9.10;99.90
6439;DHT22;3252;52.540;13.290;2023-05-07T02:39:27;9.10;99.90
6439;DHT22;3252;52.540;13.290;2023-05-07T02:41:29;9.10;99.90
6439;DHT22;3252;52.540;13.290;2023-05-07T02:43:32;9.10;99.90
6439;DHT22;3252;52.540;13.290;2023-05-07T02:45:35;9.10;99.90
6439;DHT22;3252;52.540;13.290;2023-05-07T02:47:40;9.10;99.90
6439;DHT22;3252;52.540;13.290;2023-05-07T02:49:43;9.10;99.90
6439;DHT22;3252;52.540;13.290;2023-05-07T02:51:45;9.10;99.90
6439;DHT22;3252;52.540;13.290;2023-05-07T02:53:56;9.10;99.90
6439;DHT22;3252;52.540;13.290;2023-05-07T02:56:02;9.00;99.90
6439;DHT22;3252;52.540;13.290;2023-05-07T02:58:09;9.10;99.90
6439;DHT22;3252;52.540;13.290;2023-05-07T03:00:17;9.00;99.90
6439;DHT22;3252;52.540;13.290;2023-05-07T03:02:34;9.00;99.90
6439;DHT22;3252;52.540;13.290;2023-05-07T03:04:38;9.00;99.90
6439;DHT22;3252;52.540;13.290;2023-05-07T03:06:41;9.10;99.90
6439;DHT22;3252;52.540;13.290;2023-05-07T03:08:43;9.10;99.90
6439;DHT22;3252;52.540;13.290;2023-05-07T03:10:46;9.10;99.90
6439;DHT22;3252;52.540;13.290;2023-05-07T03:12:52;9.10;99.90
6439;DHT22;3252;52.540;13.290;2023-05-07T03:14:55;9.10;99.90
6439;DHT22;3252;52.540;13.290;2023-05-07T03:16:59;9.10;99.90
6439;DHT22;3252;52.540;13.290;2023-05-07T03:19:03;9.10;99.90
6439;DHT22;3252;52.540;13.290;2023-05-07T03:21:06;9.10;99.90
6439;DHT22;3252;52.540;13.290;2023-05-07T03:23:14;9.10;99.90
6439;DHT22;3252;52.540;13.290;2023-05-07T03:25:19;9.10;99.90
6439;DHT22;3252;52.540;13.290;2023-05-07T03:27:24;9.10;99.90
6439;DHT22;3252;52.540;13.290;2023-05-07T03:29:30;9.10;99.90
6439;DHT22;3252;52.540;13.290;2023-05-07T03:31:35;9.10;99.90
6439;DHT22;3252;52.540;13.290;2023-05-07T03:33:49;9.20;99.90
6439;DHT22;3252;52.540;13.290;2023-05-07T03:35:57;9.20;99.90
6439;DHT22;3252;52.540;13.290;2023-05-07T03:38:01;9.20;99.90
6439;DHT22;3252;52.540;13.290;2023-05-07T03:40:08;9.20;99.90
6439;DHT22;3252;52.540;13.290;2023-05-07T03:42:21;9.10;99.90
6439;DHT22;3252;52.540;13.290;2023-05-07T03:44:27;9.10;99.90
6439;DHT22;3252;52.540;13.290;2023-05-07T03:46:38;9.10;99.90
6439;DHT22;3252;52.540;13.290;2023-05-07T03:48:46;9.20;99.90
6439;DHT22;3252;52.540;13.290;2023-05-07T03:50:49;9.10;99.90
6439;DHT22;3252;52.540;13.290;2023-05-07T03:52:58;9.10;99.90
6439;DHT22;3252;52.540;13.290;2023-05-07T03:55:10;9.10;99.90
6439;DHT22;3252;52.540;13.290;2023-05-07T03:57:26;9.10;99.90
6439;DHT22;3252;52.540;13.290;2023-05-07T03:59:57;9.10;99.90
6439;DHT22;3252;52.540;13.290;2023-05-07T04:02:00;9.10;99.90
6439;DHT22;3252;52.540;13.290;2023-05-07T04:04:09;9.10;99.90
6439;DHT22;3252;52.540;13.290;2023-05-07T04:06:16;9.10;99.90
6439;DHT22;3252;52.540;13.290;2023-05-07T04:08:34;9.10;99.90
6439;DHT22;3252;52.540;13.290;2023-05-07T04:10:38;9.10;99.90
6439;DHT22;3252;52.540;13.290;2023-05-07T04:12:49;9.10;99.90
6439;DHT22;3252;52.540;13.290;2023-05-07T04:14:56;9.00;99.90
6439;DHT22;3252;52.540;13.290;2023-05-07T04:17:02;9.00;99.90
6439;DHT22;3252;52.540;13.290;2023-05-07T04:19:13;9.00;99.90
6439;DHT22;3252;52.540;13.290;2023-05-07T04:21:40;9.00;99.90
6439;DHT22;3252;52.540;13.290;2023-05-07T04:23:49;9.10;99.90
6439;DHT22;3252;52.540;13.290;2023-05-07T04:26:00;9.10;99.90
6439;DHT22;3252;52.540;13.290;2023-05-07T04:28:15;9.10;99.90
6439;DHT22;3252;52.540;13.290;2023-05-07T04:30:18;9.00;99.90
6439;DHT22;3252;52.540;13.290;2023-05-07T04:32:22;9.00;99.90
6439;DHT22;3252;52.540;13.290;2023-05-07T04:34:28;9.00;99.90
6439;DHT22;3252;52.540;13.290;2023-05-07T04:36:32;9.00;99.90
6439;DHT22;3252;52.540;13.290;2023-05-07T04:38:47;9.00;99.90
6439;DHT22;3252;52.540;13.290;2023-05-07T04:41:02;8.90;99.90
6439;DHT22;3252;52.540;13.290;2023-05-07T04:43:14;9.00;99.90
6439;DHT22;3252;52.540;13.290;2023-05-07T04:45:27;9.00;99.90
6439;DHT22;3252;52.540;13.290;2023-05-07T04:47:32;9.00;99.90
6439;DHT22;3252;52.540;13.290;2023-05-07T04:49:46;9.00;99.90
6439;DHT22;3252;52.540;13.290;2023-05-07T04:52:01;9.00;99.90
6439;DHT22;3252;52.540;13.290;2023-05-07T04:54:06;9.10;99.90
6439;DHT22;3252;52.540;13.290;2023-05-07T04:56:12;9.00;99.90
6439;DHT22;3252;52.540;13.290;2023-05-07T04:58:25;9.10;99.90
6439;DHT22;3252;52.540;13.290;2023-05-07T05:00:33;9.10;99.90
6439;DHT22;3252;52.540;13.290;2023-05-07T05:02:39;9.10;99.90
6439;DHT22;3252;52.540;13.290;2023-05-07T05:04:43;9.10;99.90
6439;DHT22;3252;52.540;13.290;2023-05-07T05:06:59;9.10;99.90
6439;DHT22;3252;52.540;13.290;2023-05-07T05:09:33;9.20;99.90
6439;DHT22;3252;52.540;13.290;2023-05-07T05:12:06;9.20;99.90
6439;DHT22;3252;52.540;13.290;2023-05-07T05:14:18;9.10;99.90
6439;DHT22;3252;52.540;13.290;2023-05-07T05:17:05;9.10;99.90
6439;DHT22;3252;52.540;13.290;2023-05-07T05:19:16;9.10;99.90
6439;DHT22;3252;52.540;13.290;2023-05-07T05:21:29;9.10;99.90
6439;DHT22;3252;52.540;13.290;2023-05-07T05:23:41;9.20;99.90
6439;DHT22;3252;52.540;13.290;2023-05-07T05:25:49;9.30;99.90
6439;DHT22;3252;52.540;13.290;2023-05-07T05:28:00;9.30;99.90
6439;DHT22;3252;52.540;13.290;2023-05-07T05:30:06;9.40;99.90
6439;DHT22;3252;52.540;13.290;2023-05-07T05:32:16;9.50;99.90
6439;DHT22;3252;52.540;13.290;2023-05-07T05:34:22;9.50;99.90
6439;DHT22;3252;52.540;13.290;2023-05-07T05:37:11;9.50;99.90
6439;DHT22;3252;52.540;13.290;2023-05-07T05:39:55;9.50;99.90
6439;DHT22;3252;52.540;13.290;2023-05-07T05:42:11;9.50;99.90
6439;DHT22;3252;52.540;13.290;2023-05-07T05:44:20;9.50;99.90
6439;DHT22;3252;52.540;13.290;2023-05-07T05:46:40;9.50;99.90
6439;DHT22;3252;52.540;13.290;2023-05-07T05:49:00;9.50;99.90
6439;DHT22;3252;52.540;13.290;2023-05-07T05:52:23;9.40;99.90
6439;DHT22;3252;52.540;13.290;2023-05-07T05:57:23;9.60;99.90
6439;DHT22;3252;52.540;13.290;2023-05-07T05:59:25;9.70;99.90
6439;DHT22;3252;52.540;13.290;2023-05-07T06:01:35;9.80;99.90
6439;DHT22;3252;52.540;13.290;2023-05-07T06:03:49;9.80;99.90
6439;DHT22;3252;52.540;13.290;2023-05-07T06:05:52;9.90;99.90
6439;DHT22;3252;52.540;13.290;2023-05-07T06:07:57;10.10;99.90
6439;DHT22;3252;52.540;13.290;2023-05-07T06:10:04;10.20;99.90
6439;DHT22;3252;52.540;13.290;2023-05-07T06:12:08;10.30;99.90
6439;DHT22;3252;52.540;13.290;2023-05-07T06:14:13;10.30;99.90
6439;DHT22;3252;52.540;13.290;2023-05-07T06:16:15;10.40;99.90
6439;DHT22;3252;52.540;13.290;2023-05-07T06:18:18;10.50;99.90
6439;DHT22;3252;52.540;13.290;2023-05-07T06:20:21;10.60;99.90
6439;DHT22;3252;52.540;13.290;2023-05-07T06:22:24;10.60;99.90
6439;DHT22;3252;52.540;13.290;2023-05-07T06:24:27;10.70;99.90
6439;DHT22;3252;52.540;13.290;2023-05-07T06:26:30;10.70;99.90
6439;DHT22;3252;52.540;13.290;2023-05-07T06:28:34;10.50;99.90
6439;DHT22;3252;52.540;13.290;2023-05-07T06:30:45;10.50;99.90
6439;DHT22;3252;52.540;13.290;2023-05-07T06:32:49;10.60;99.90
6439;DHT22;3252;52.540;13.290;2023-05-07T06:34:52;10.80;99.90
6439;DHT22;3252;52.540;13.290;2023-05-07T06:36:54;11.00;99.90
6439;DHT22;3252;52.540;13.290;2023-05-07T06:39:14;11.00;99.90
6439;DHT22;3252;52.540;13.290;2023-05-07T06:41:19;10.80;99.90
6439;DHT22;3252;52.540;13.290;2023-05-07T06:43:21;10.70;99.90
6439;DHT22;3252;52.540;13.290;2023-05-07T06:45:29;10.80;99.90
6439;DHT22;3252;52.540;13.290;2023-05-07T06:47:33;10.60;99.90
6439;DHT22;3252;52.540;13.290;2023-05-07T06:49:36;10.40;99.90
6439;DHT22;3252;52.540;13.290;2023-05-07T06:51:41;10.40;99.90
6439;DHT22;3252;52.540;13.290;2023-05-07T06:53:46;10.50;99.90
6439;DHT22;3252;52.540;13.290;2023-05-07T06:55:49;10.60;99.90
6439;DHT22;3252;52.540;13.290;2023-05-07T06:57:54;10.80;99.90
6439;DHT22;3252;52.540;13.290;2023-05-07T06:59:58;10.90;99.90
6439;DHT22;3252;52.540;13.290;2023-05-07T07:02:00;10.80;99.90
6439;DHT22;3252;52.540;13.290;2023-05-07T07:04:04;10.90;99.90
6439;DHT22;3252;52.540;13.290;2023-05-07T07:06:07;11.00;99.90
6439;DHT22;3252;52.540;13.290;2023-05-07T07:08:10;11.20;99.90
6439;DHT22;3252;52.540;13.290;2023-05-07T07:10:12;11.20;99.90
6439;DHT22;3252;52.540;13.290;2023-05-07T07:12:17;11.10;99.90
6439;DHT22;3252;52.540;13.290;2023-05-07T07:14:22;11.10;99.90
6439;DHT22;3252;52.540;13.290;2023-05-07T07:16:27;11.40;99.90
6439;DHT22;3252;52.540;13.290;2023-05-07T07:18:29;11.50;99.90
6439;DHT22;3252;52.540;13.290;2023-05-07T07:20:34;11.80;99.90
6439;DHT22;3252;52.540;13.290;2023-05-07T07:22:37;12.10;99.90
6439;DHT22;3252;52.540;13.290;2023-05-07T07:24:39;12.20;99.90
6439;DHT22;3252;52.540;13.290;2023-05-07T07:26:44;12.10;99.90
6439;DHT22;3252;52.540;13.290;2023-05-07T07:28:48;12.30;99.90
6439;DHT22;3252;52.540;13.290;2023-05-07T07:30:53;12.50;99.90
6439;DHT22;3252;52.540;13.290;2023-05-07T07:32:56;12.70;99.90
6439;DHT22;3252;52.540;13.290;2023-05-07T07:35:05;13.40;99.90
6439;DHT22;3252;52.540;13.290;2023-05-07T07:37:08;13.00;99.90
6439;DHT22;3252;52.540;13.290;2023-05-07T07:39:12;13.50;99.90
6439;DHT22;3252;52.540;13.290;2023-05-07T07:41:14;14.00;98.90
6439;DHT22;3252;52.540;13.290;2023-05-07T07:43:16;14.20;98.00
6439;DHT22;3252;52.540;13.290;2023-05-07T07:45:19;14.20;97.50
6439;DHT22;3252;52.540;13.290;2023-05-07T07:47:24;14.10;97.30
6439;DHT22;3252;52.540;13.290;2023-05-07T07:49:27;14.10;97.80
6439;DHT22;3252;52.540;13.290;2023-05-07T07:51:32;13.90;97.70
6439;DHT22;3252;52.540;13.290;2023-05-07T07:53:36;14.00;97.50
6439;DHT22;3252;52.540;13.290;2023-05-07T07:55:39;14.20;97.10
6439;DHT22;3252;52.540;13.290;2023-05-07T07:57:42;14.00;97.00
6439;DHT22;3252;52.540;13.290;2023-05-07T07:59:44;13.80;97.60
6439;DHT22;3252;52.540;13.290;2023-05-07T08:01:49;14.00;98.20
6439;DHT22;3252;52.540;13.290;2023-05-07T08:03:53;14.30;97.30
6439;DHT22;3252;52.540;13.290;2023-05-07T08:05:56;14.60;96.80
6439;DHT22;3252;52.540;13.290;2023-05-07T08:07:58;14.40;96.00
6439;DHT22;3252;52.540;13.290;2023-05-07T08:10:07;14.10;96.50
6439;DHT22;3252;52.540;13.290;2023-05-07T08:12:10;14.00;96.30
6439;DHT22;3252;52.540;13.290;2023-05-07T08:14:13;13.90;97.10
6439;DHT22;3252;52.540;13.290;2023-05-07T08:16:17;14.10;96.80
6439;DHT22;3252;52.540;13.290;2023-05-07T08:18:20;13.90;96.50
6439;DHT22;3252;52.540;13.290;2023-05-07T08:20:24;13.90;96.80
6439;DHT22;3252;52.540;13.290;2023-05-07T08:22:27;14.10;96.60
6439;DHT22;3252;52.540;13.290;2023-05-07T08:24:29;14.10;97.10
6439;DHT22;3252;52.540;13.290;2023-05-07T08:26:33;14.50;95.50
6439;DHT22;3252;52.540;13.290;2023-05-07T08:28:37;14.40;96.10
6439;DHT22;3252;52.540;13.290;2023-05-07T08:30:40;14.50;96.40
6439;DHT22;3252;52.540;13.290;2023-05-07T08:32:43;14.60;95.60
6439;DHT22;3252;52.540;13.290;2023-05-07T08:34:45;14.60;94.80
6439;DHT22;3252;52.540;13.290;2023-05-07T08:36:47;14.70;94.90
6439;DHT22;3252;52.540;13.290;2023-05-07T08:38:52;14.80;94.10
6439;DHT22;3252;52.540;13.290;2023-05-07T08:40:56;15.20;93.10
6439;DHT22;3252;52.540;13.290;2023-05-07T08:43:01;14.70;94.30
6439;DHT22;3252;52.540;13.290;2023-05-07T08:45:05;15.20;93.70
6439;DHT22;3252;52.540;13.290;2023-05-07T08:47:11;15.20;92.90
6439;DHT22;3252;52.540;13.290;2023-05-07T08:49:14;15.30;92.40
6439;DHT22;3252;52.540;13.290;2023-05-07T08:51:20;15.80;90.90
6439;DHT22;3252;52.540;13.290;2023-05-07T08:53:23;16.40;86.50
6439;DHT22;3252;52.540;13.290;2023-05-07T08:55:28;15.40;89.30
6439;DHT22;3252;52.540;13.290;2023-05-07T08:57:31;15.40;91.40
6439;DHT22;3252;52.540;13.290;2023-05-07T08:59:35;15.80;91.20
6439;DHT22;3252;52.540;13.290;2023-05-07T09:03:42;16.60;87.00
6439;DHT22;3252;52.540;13.290;2023-05-07T09:05:46;17.80;74.40
6439;DHT22;3252;52.540;13.290;2023-05-07T09:07:50;17.50;74.70
6439;DHT22;3252;52.540;13.290;2023-05-07T09:09:53;17.30;80.30
6439;DHT22;3252;52.540;13.290;2023-05-07T09:11:57;17.60;79.30
6439;DHT22;3252;52.540;13.290;2023-05-07T09:14:02;18.10;72.40
6439;DHT22;3252;52.540;13.290;2023-05-07T09:16:12;16.90;78.70
6439;DHT22;3252;52.540;13.290;2023-05-07T09:18:17;17.00;80.90
6439;DHT22;3252;52.540;13.290;2023-05-07T09:20:22;17.80;75.40
6439;DHT22;3252;52.540;13.290;2023-05-07T09:22:24;18.30;66.80
6439;DHT22;3252;52.540;13.290;2023-05-07T09:24:35;17.40;73.30
6439;DHT22;3252;52.540;13.290;2023-05-07T09:26:41;18.00;69.60
6439;DHT22;3252;52.540;13.290;2023-05-07T09:28:44;17.50;67.00
6439;DHT22;3252;52.540;13.290;2023-05-07T09:30:48;18.70;61.70
6439;DHT22;3252;52.540;13.290;2023-05-07T09:32:52;19.90;57.10
6439;DHT22;3252;52.540;13.290;2023-05-07T09:34:56;20.10;54.50
6439;DHT22;3252;52.540;13.290;2023-05-07T09:37:01;20.90;51.60
6439;DHT22;3252;52.540;13.290;2023-05-07T09:39:05;21.00;51.70
6439;DHT22;3252;52.540;13.290;2023-05-07T09:41:09;18.90;53.60
6439;DHT22;3252;52.540;13.290;2023-05-07T09:43:35;18.30;60.70
6439;DHT22;3252;52.540;13.290;2023-05-07T09:45:39;19.30;56.90
6439;DHT22;3252;52.540;13.290;2023-05-07T09:47:43;19.20;57.70
6439;DHT22;3252;52.540;13.290;2023-05-07T09:49:48;18.10;61.20
6439;DHT22;3252;52.540;13.290;2023-05-07T09:51:55;17.10;72.50
6439;DHT22;3252;52.540;13.290;2023-05-07T09:54:00;18.10;67.30
6439;DHT22;3252;52.540;13.290;2023-05-07T09:56:05;18.40;63.30
6439;DHT22;3252;52.540;13.290;2023-05-07T09:58:08;18.50;61.60
6439;DHT22;3252;52.540;13.290;2023-05-07T10:00:12;18.40;63.90
6439;DHT22;3252;52.540;13.290;2023-05-07T10:02:23;17.70;66.00
6439;DHT22;3252;52.540;13.290;2023-05-07T10:04:28;16.90;76.00
6439;DHT22;3252;52.540;13.290;2023-05-07T10:06:32;16.10;81.80
6439;DHT22;3252;52.540;13.290;2023-05-07T10:08:36;16.10;86.00
6439;DHT22;3252;52.540;13.290;2023-05-07T10:10:40;16.70;85.20
6439;DHT22;3252;52.540;13.290;2023-05-07T10:12:46;16.40;80.20
6439;DHT22;3252;52.540;13.290;2023-05-07T10:14:56;16.10;83.80
6439;DHT22;3252;52.540;13.290;2023-05-07T10:16:59;15.40;88.50
6439;DHT22;3252;52.540;13.290;2023-05-07T10:19:02;15.20;91.00
6439;DHT22;3252;52.540;13.290;2023-05-07T10:21:11;15.60;90.50
6439;DHT22;3252;52.540;13.290;2023-05-07T10:23:19;15.80;89.20
6439;DHT22;3252;52.540;13.290;2023-05-07T10:25:28;15.50;89.90
6439;DHT22;3252;52.540;13.290;2023-05-07T10:27:33;15.70;90.30
6439;DHT22;3252;52.540;13.290;2023-05-07T10:29:42;15.70;89.70
6439;DHT22;3252;52.540;13.290;2023-05-07T10:31:57;15.70;90.40
6439;DHT22;3252;52.540;13.290;2023-05-07T10:34:06;16.00;93.00
6439;DHT22;3252;52.540;13.290;2023-05-07T10:36:09;15.80;91.00
6439;DHT22;3252;52.540;13.290;2023-05-07T10:38:12;15.80;90.80
6439;DHT22;3252;52.540;13.290;2023-05-07T10:40:20;15.90;91.30
6439;DHT22;3252;52.540;13.290;2023-05-07T10:42:23;15.70;90.70
6439;DHT22;3252;52.540;13.290;2023-05-07T10:44:29;15.50;90.50
6439;DHT22;3252;52.540;13.290;2023-05-07T10:46:37;15.40;91.80
6439;DHT22;3252;52.540;13.290;2023-05-07T10:49:09;15.30;92.00
6439;DHT22;3252;52.540;13.290;2023-05-07T10:51:22;15.40;91.00
6439;DHT22;3252;52.540;13.290;2023-05-07T10:53:35;15.30;91.70
6439;DHT22;3252;52.540;13.290;2023-05-07T10:55:46;15.50;90.50
6439;DHT22;3252;52.540;13.290;2023-05-07T10:57:53;15.50;91.00
6439;DHT22;3252;52.540;13.290;2023-05-07T11:00:42;15.40;91.20
6439;DHT22;3252;52.540;13.290;2023-05-07T11:03:09;15.60;92.10
6439;DHT22;3252;52.540;13.290;2023-05-07T11:05:33;15.80;90.70
6439;DHT22;3252;52.540;13.290;2023-05-07T11:07:56;15.90;92.10
6439;DHT22;3252;52.540;13.290;2023-05-07T11:10:05;16.40;89.40
6439;DHT22;3252;52.540;13.290;2023-05-07T11:12:18;16.10;84.90
6439;DHT22;3252;52.540;13.290;2023-05-07T11:14:46;15.70;90.70
6439;DHT22;3252;52.540;13.290;2023-05-07T11:17:02;15.80;90.40
6439;DHT22;3252;52.540;13.290;2023-05-07T11:19:05;16.00;89.40
6439;DHT22;3252;52.540;13.290;2023-05-07T11:21:32;16.10;90.60
6439;DHT22;3252;52.540;13.290;2023-05-07T11:24:08;15.90;85.80
6439;DHT22;3252;52.540;13.290;2023-05-07T11:26:22;15.60;86.90
6439;DHT22;3252;52.540;13.290;2023-05-07T11:28:27;15.40;88.70
6439;DHT22;3252;52.540;13.290;2023-05-07T11:30:36;15.20;90.00
6439;DHT22;3252;52.540;13.290;2023-05-07T11:32:40;15.30;90.10
6439;DHT22;3252;52.540;13.290;2023-05-07T11:34:44;15.50;90.00
6439;DHT22;3252;52.540;13.290;2023-05-07T11:36:47;15.30;89.30
6439;DHT22;3252;52.540;13.290;2023-05-07T11:38:54;15.30;87.80
6439;DHT22;3252;52.540;13.290;2023-05-07T11:40:58;15.20;87.70
6439;DHT22;3252;52.540;13.290;2023-05-07T11:43:10;15.20;89.80
6439;DHT22;3252;52.540;13.290;2023-05-07T11:45:23;15.20;89.80
6439;DHT22;3252;52.540;13.290;2023-05-07T11:47:25;15.20;89.80
6439;DHT22;3252;52.540;13.290;2023-05-07T11:49:28;15.20;90.60
6439;DHT22;3252;52.540;13.290;2023-05-07T11:51:30;15.30;90.50
6439;DHT22;3252;52.540;13.290;2023-05-07T11:53:37;15.60;90.60
6439;DHT22;3252;52.540;13.290;2023-05-07T11:55:39;15.50;90.10
6439;DHT22;3252;52.540;13.290;2023-05-07T11:57:42;15.50;89.50
6439;DHT22;3252;52.540;13.290;2023-05-07T11:59:45;15.50;88.80
6439;DHT22;3252;52.540;13.290;2023-05-07T12:01:49;15.60;89.80
6439;DHT22;3252;52.540;13.290;2023-05-07T12:03:51;15.80;87.60
6439;DHT22;3252;52.540;13.290;2023-05-07T12:05:53;16.10;85.90
6439;DHT22;3252;52.540;13.290;2023-05-07T12:07:56;16.20;84.80
6439;DHT22;3252;52.540;13.290;2023-05-07T12:09:58;16.30;82.80
6439;DHT22;3252;52.540;13.290;2023-05-07T12:12:04;16.30;80.00
6439;DHT22;3252;52.540;13.290;2023-05-07T12:14:07;16.40;83.20
6439;DHT22;3252;52.540;13.290;2023-05-07T12:16:09;16.40;78.80
6439;DHT22;3252;52.540;13.290;2023-05-07T12:18:13;16.30;78.60
6439;DHT22;3252;52.540;13.290;2023-05-07T12:20:15;16.40;77.80
6439;DHT22;3252;52.540;13.290;2023-05-07T12:22:18;16.30;78.00
6439;DHT22;3252;52.540;13.290;2023-05-07T12:24:21;16.30;81.70
6439;DHT22;3252;52.540;13.290;2023-05-07T12:26:23;16.30;81.50
6439;DHT22;3252;52.540;13.290;2023-05-07T12:28:26;16.20;83.10
6439;DHT22;3252;52.540;13.290;2023-05-07T12:30:28;16.30;80.10
6439;DHT22;3252;52.540;13.290;2023-05-07T12:32:31;16.20;81.00
6439;DHT22;3252;52.540;13.290;2023-05-07T12:34:39;16.00;81.80
6439;DHT22;3252;52.540;13.290;2023-05-07T12:36:41;16.10;81.80
6439;DHT22;3252;52.540;13.290;2023-05-07T12:38:43;16.40;80.30
6439;DHT22;3252;52.540;13.290;2023-05-07T12:40:47;16.30;79.80
6439;DHT22;3252;52.540;13.290;2023-05-07T12:42:53;16.20;81.60
6439;DHT22;3252;52.540;13.290;2023-05-07T12:44:56;16.30;81.50
6439;DHT22;3252;52.540;13.290;2023-05-07T12:47:01;16.30;81.20
6439;DHT22;3252;52.540;13.290;2023-05-07T12:49:04;16.50;80.30
6439;DHT22;3252;52.540;13.290;2023-05-07T12:51:08;16.40;78.90
6439;DHT22;3252;52.540;13.290;2023-05-07T12:53:12;16.30;78.20
6439;DHT22;3252;52.540;13.290;2023-05-07T12:55:16;16.20;78.60
6439;DHT22;3252;52.540;13.290;2023-05-07T12:57:19;16.30;78.90
6439;DHT22;3252;52.540;13.290;2023-05-07T12:59:31;16.40;77.80
6439;DHT22;3252;52.540;13.290;2023-05-07T13:01:35;16.40;77.40
6439;DHT22;3252;52.540;13.290;2023-05-07T13:03:37;16.40;77.00
6439;DHT22;3252;52.540;13.290;2023-05-07T13:05:39;16.40;74.20
6439;DHT22;3252;52.540;13.290;2023-05-07T13:07:53;16.20;75.40
6439;DHT22;3252;52.540;13.290;2023-05-07T13:09:56;16.20;77.00
6439;DHT22;3252;52.540;13.290;2023-05-07T13:11:58;16.40;78.30
6439;DHT22;3252;52.540;13.290;2023-05-07T13:14:02;16.40;77.30
6439;DHT22;3252;52.540;13.290;2023-05-07T13:16:05;16.50;76.00
6439;DHT22;3252;52.540;13.290;2023-05-07T13:18:07;16.40;74.60
6439;DHT22;3252;52.540;13.290;2023-05-07T13:20:12;16.40;76.00
6439;DHT22;3252;52.540;13.290;2023-05-07T13:22:14;16.60;76.10
6439;DHT22;3252;52.540;13.290;2023-05-07T13:24:17;16.50;73.50
6439;DHT22;3252;52.540;13.290;2023-05-07T13:26:20;16.40;74.80
6439;DHT22;3252;52.540;13.290;2023-05-07T13:28:23;16.20;74.10
6439;DHT22;3252;52.540;13.290;2023-05-07T13:30:25;16.20;76.00
6439;DHT22;3252;52.540;13.290;2023-05-07T13:32:27;16.20;74.50
6439;DHT22;3252;52.540;13.290;2023-05-07T13:34:29;16.30;72.00
6439;DHT22;3252;52.540;13.290;2023-05-07T13:36:32;16.30;70.20
6439;DHT22;3252;52.540;13.290;2023-05-07T13:38:38;16.30;70.20
6439;DHT22;3252;52.540;13.290;2023-05-07T13:40:42;16.60;71.10
6439;DHT22;3252;52.540;13.290;2023-05-07T13:42:44;16.80;68.50
6439;DHT22;3252;52.540;13.290;2023-05-07T13:44:47;16.70;67.90